createdAt,value
2018-10-07T00:02:26.646Z,10.13
2018-10-07T00:04:54.439Z,12.70
2018-10-07T00:07:22.012Z,9.57
2018-10-07T00:09:49.732Z,12.77
2018-10-07T00:12:17.380Z,8.40
2018-10-07T00:14:45.068Z,13.80
2018-10-07T00:17:12.460Z,13.73
2018-10-07T00:19:40.097Z,13.97
2018-10-07T00:22:07.490Z,16.40
2018-10-07T00:24:35.096Z,13.40
2018-10-07T00:27:02.746Z,13.50
2018-10-07T00:29:30.384Z,10.50
2018-10-07T00:32:03.470Z,16.27
2018-10-07T00:34:31.040Z,13.30
2018-10-07T00:36:58.642Z,12.40
2018-10-07T00:39:26.188Z,14.80
2018-10-07T00:41:53.689Z,11.30
2018-10-07T00:44:21.712Z,10.17
2018-10-07T00:46:49.186Z,9.30
2018-10-07T00:49:16.843Z,14.07
2018-10-07T00:58:44.421Z,8.90
2018-10-07T01:01:12.562Z,9.80
2018-10-07T01:03:40.108Z,14.53
2018-10-07T01:06:08.089Z,9.20
2018-10-07T01:08:35.593Z,10.23
2018-10-07T01:11:03.123Z,11.13
2018-10-07T01:13:31.763Z,8.57
2018-10-07T01:16:00.172Z,14.13
2018-10-07T01:18:28.485Z,12.17
2018-10-07T01:20:56.072Z,9.93
2018-10-07T01:23:23.541Z,10.10
2018-10-07T01:25:52.084Z,17.33
2018-10-07T01:28:19.627Z,9.73
2018-10-07T01:30:48.231Z,11.20
2018-10-07T01:33:15.689Z,8.07
2018-10-07T01:35:43.087Z,6.80
2018-10-07T01:38:11.321Z,9.83
2018-10-07T01:40:39.586Z,12.00
2018-10-07T01:43:07.042Z,8.50
2018-10-07T01:45:35.271Z,8.17
2018-10-07T01:48:04.247Z,11.30
2018-10-07T01:50:31.624Z,9.43
2018-10-07T01:52:59.305Z,16.67
2018-10-07T01:55:26.815Z,18.40
2018-10-07T01:57:54.397Z,9.97
2018-10-07T02:00:25.710Z,8.10
2018-10-07T02:02:53.309Z,10.20
2018-10-07T02:05:20.837Z,9.10
2018-10-07T02:07:48.363Z,6.70
2018-10-07T02:10:15.962Z,9.70
2018-10-07T02:12:43.461Z,12.50
2018-10-07T02:15:11.103Z,13.83
2018-10-07T02:17:38.705Z,10.50
2018-10-07T02:20:06.305Z,9.80
2018-10-07T02:22:33.763Z,8.83
2018-10-07T02:25:01.276Z,6.87
2018-10-07T02:27:28.740Z,6.30
2018-10-07T02:29:56.283Z,10.10
2018-10-07T02:32:23.805Z,8.90
2018-10-07T02:34:51.953Z,8.43
2018-10-07T02:37:19.672Z,7.23
2018-10-07T02:39:47.745Z,6.93
2018-10-07T02:42:15.338Z,7.87
2018-10-07T02:44:42.932Z,9.83
2018-10-07T02:47:11.151Z,12.27
2018-10-07T02:49:39.166Z,7.43
2018-10-07T02:52:06.973Z,13.97
2018-10-07T02:54:34.560Z,10.87
2018-10-07T02:57:03.216Z,5.80
2018-10-07T02:59:30.922Z,5.23
2018-10-07T03:01:58.471Z,7.13
2018-10-07T03:04:26.000Z,6.87
2018-10-07T03:06:54.260Z,8.83
2018-10-07T03:09:21.765Z,7.00
2018-10-07T03:11:49.204Z,9.27
2018-10-07T03:14:16.772Z,14.43
2018-10-07T03:16:44.317Z,10.23
2018-10-07T03:19:11.833Z,5.93
2018-10-07T03:21:40.075Z,8.50
2018-10-07T03:24:07.681Z,9.80
2018-10-07T03:26:35.764Z,10.10
2018-10-07T03:29:03.929Z,8.03
2018-10-07T03:31:31.545Z,9.30
2018-10-07T03:33:58.992Z,9.27
2018-10-07T03:36:26.564Z,8.30
2018-10-07T03:38:54.219Z,6.03
2018-10-07T03:41:21.919Z,8.00
2018-10-07T03:43:49.435Z,7.50
2018-10-07T03:46:16.981Z,10.10
2018-10-07T03:48:44.476Z,10.93
2018-10-07T03:51:12.802Z,9.63
2018-10-07T03:53:40.312Z,8.73
2018-10-07T03:56:08.393Z,7.87
2018-10-07T03:58:35.928Z,8.47
2018-10-07T04:01:03.375Z,9.37
2018-10-07T04:03:31.108Z,12.90
2018-10-07T04:05:58.639Z,8.57
2018-10-07T04:08:27.148Z,8.30
2018-10-07T04:10:54.817Z,10.53
2018-10-07T04:13:22.456Z,8.67
2018-10-07T04:15:49.943Z,7.40
2018-10-07T04:18:18.303Z,6.67
2018-10-07T04:20:45.788Z,8.00
2018-10-07T04:23:13.277Z,8.83
2018-10-07T04:25:40.854Z,9.73
2018-10-07T04:28:08.291Z,9.43
2018-10-07T04:30:35.776Z,6.90
2018-10-07T04:33:03.305Z,9.40
2018-10-07T04:35:30.837Z,9.70
2018-10-07T04:37:58.468Z,9.17
2018-10-07T04:40:25.908Z,7.73
2018-10-07T04:42:53.961Z,10.43
2018-10-07T04:45:21.680Z,9.30
2018-10-07T04:47:49.161Z,10.57
2018-10-07T04:50:16.761Z,10.33
2018-10-07T04:52:44.731Z,11.83
2018-10-07T04:55:12.252Z,8.97
2018-10-07T04:57:39.904Z,8.40
2018-10-07T05:00:07.405Z,9.70
2018-10-07T05:02:35.184Z,6.20
2018-10-07T05:05:02.916Z,14.10
2018-10-07T05:07:30.698Z,11.50
2018-10-07T05:10:09.643Z,8.33
2018-10-07T05:12:37.246Z,11.40
2018-10-07T05:15:05.783Z,14.23
2018-10-07T05:17:33.362Z,8.37
2018-10-07T05:20:01.492Z,16.63
2018-10-07T05:22:29.093Z,11.00
2018-10-07T05:24:56.925Z,10.27
2018-10-07T05:27:24.455Z,11.53
2018-10-07T05:29:51.990Z,10.00
2018-10-07T05:32:19.449Z,12.37
2018-10-07T05:34:46.960Z,11.93
2018-10-07T05:37:15.031Z,13.17
2018-10-07T05:39:42.524Z,16.07
2018-10-07T05:42:10.084Z,17.40
2018-10-07T05:44:37.823Z,15.77
2018-10-07T05:47:05.488Z,10.27
2018-10-07T05:49:32.996Z,13.70
2018-10-07T05:52:00.496Z,14.00
2018-10-07T05:54:28.119Z,17.60
2018-10-07T05:56:55.767Z,14.30
2018-10-07T05:59:23.425Z,10.27
2018-10-07T06:01:51.344Z,11.50
2018-10-07T06:04:27.445Z,13.03
2018-10-07T06:06:56.602Z,15.10
2018-10-07T06:09:26.841Z,14.97
2018-10-07T06:11:55.048Z,17.10
2018-10-07T06:14:34.010Z,16.90
2018-10-07T06:17:01.987Z,16.30
2018-10-07T06:19:29.972Z,16.20
2018-10-07T06:21:57.568Z,15.13
2018-10-07T06:24:25.322Z,13.20
2018-10-07T06:26:53.667Z,11.83
2018-10-07T06:29:21.373Z,18.70
2018-10-07T06:31:49.480Z,15.57
2018-10-07T06:34:16.990Z,15.57
2018-10-07T06:36:44.647Z,16.37
2018-10-07T06:39:12.115Z,14.10
2018-10-07T06:41:40.809Z,19.57
2018-10-07T06:44:08.277Z,13.13
2018-10-07T06:46:35.895Z,15.40
2018-10-07T06:49:03.629Z,14.07
2018-10-07T06:51:31.240Z,14.97
2018-10-07T06:53:58.763Z,14.03
2018-10-07T06:56:26.340Z,18.10
2018-10-07T06:58:53.872Z,21.63
2018-10-07T07:01:21.421Z,15.40
2018-10-07T07:03:48.815Z,15.07
2018-10-07T07:06:16.462Z,21.50
2018-10-07T07:08:44.103Z,11.90
2018-10-07T07:11:12.384Z,13.10
2018-10-07T07:13:40.932Z,16.90
2018-10-07T07:16:08.458Z,13.63
2018-10-07T07:18:36.085Z,11.57
2018-10-07T07:21:03.710Z,12.27
2018-10-07T07:23:31.773Z,16.90
2018-10-07T07:25:59.322Z,12.57
2018-10-07T07:28:26.872Z,13.47
2018-10-07T07:30:54.393Z,13.60
2018-10-07T07:33:22.063Z,13.90
2018-10-07T07:35:49.577Z,14.57
2018-10-07T07:38:17.086Z,13.37
2018-10-07T07:40:45.582Z,13.70
2018-10-07T07:43:14.141Z,13.80
2018-10-07T07:45:41.941Z,17.53
2018-10-07T07:48:09.909Z,19.93
2018-10-07T07:50:39.122Z,16.37
2018-10-07T07:53:07.341Z,18.30
2018-10-07T07:55:35.060Z,14.30
2018-10-07T07:58:03.337Z,21.70
2018-10-07T08:00:31.652Z,19.70
2018-10-07T08:03:00.897Z,17.67
2018-10-07T08:05:28.779Z,17.37
2018-10-07T08:07:56.543Z,14.87
2018-10-07T08:10:24.031Z,22.97
2018-10-07T08:12:51.696Z,30.20
2018-10-07T08:15:19.393Z,18.77
2018-10-07T08:17:46.951Z,29.10
2018-10-07T08:20:14.714Z,17.93
2018-10-07T08:22:42.405Z,19.40
2018-10-07T08:25:11.200Z,19.53
2018-10-07T08:27:39.155Z,22.57
2018-10-07T08:30:06.956Z,22.67
2018-10-07T08:32:34.759Z,23.67
2018-10-07T08:35:02.620Z,30.13
2018-10-07T08:37:30.263Z,24.70
2018-10-07T08:39:58.742Z,26.93
2018-10-07T08:42:26.341Z,28.73
2018-10-07T08:44:54.949Z,28.40
2018-10-07T08:47:22.568Z,29.03
2018-10-07T08:49:50.956Z,26.63
2018-10-07T08:52:19.157Z,27.60
2018-10-07T08:54:46.691Z,32.30
2018-10-07T08:57:14.320Z,29.37
2018-10-07T08:59:41.907Z,30.27
2018-10-07T09:02:09.613Z,31.00
2018-10-07T09:04:38.004Z,33.70
2018-10-07T09:07:06.377Z,34.27
2018-10-07T09:09:34.605Z,32.80
2018-10-07T09:12:02.126Z,29.00
2018-10-07T09:14:29.767Z,35.30
2018-10-07T09:16:57.269Z,25.93
2018-10-07T09:19:24.781Z,22.60
2018-10-07T09:21:52.324Z,22.40
2018-10-07T09:24:19.992Z,23.20
2018-10-07T09:26:48.125Z,31.13
2018-10-07T09:29:15.755Z,36.67
2018-10-07T09:31:43.348Z,24.57
2018-10-07T09:34:11.007Z,27.60
2018-10-07T09:36:38.842Z,27.27
2018-10-07T09:39:08.681Z,28.27
2018-10-07T09:41:36.569Z,25.97
2018-10-07T09:44:04.055Z,17.77
2018-10-07T09:46:31.673Z,29.30
2018-10-07T09:48:59.837Z,31.83
2018-10-07T09:51:27.564Z,24.03
2018-10-07T09:53:56.172Z,20.17
2018-10-07T09:56:23.820Z,17.60
2018-10-07T09:58:51.446Z,19.10
2018-10-07T10:01:19.261Z,30.43
2018-10-07T10:03:47.032Z,27.63
2018-10-07T10:06:15.165Z,22.70
2018-10-07T10:08:42.789Z,23.77
2018-10-07T10:11:10.502Z,25.03
2018-10-07T10:13:38.158Z,24.17
2018-10-07T10:16:06.025Z,23.07
2018-10-07T10:18:40.944Z,32.00
2018-10-07T10:21:51.325Z,23.70
2018-10-07T10:24:29.079Z,29.80
2018-10-07T10:27:14.984Z,30.63
2018-10-07T10:29:47.836Z,31.47
2018-10-07T10:32:21.380Z,31.43
2018-10-07T10:35:34.308Z,30.43
2018-10-07T10:38:12.469Z,31.33
2018-10-07T10:40:48.540Z,32.73
2018-10-07T10:43:20.540Z,26.40
2018-10-07T10:46:23.513Z,29.90
2018-10-07T10:49:19.577Z,26.37
2018-10-07T10:51:52.965Z,35.50
2018-10-07T10:54:32.008Z,28.23
2018-10-07T10:57:10.403Z,27.27
2018-10-07T10:59:46.023Z,25.07
2018-10-07T11:03:20.866Z,28.73
2018-10-07T11:05:55.911Z,24.93
2018-10-07T11:08:31.052Z,25.63
2018-10-07T11:11:09.796Z,23.00
2018-10-07T11:13:41.868Z,23.20
2018-10-07T11:18:20.069Z,17.87
2018-10-07T11:21:24.921Z,23.43
2018-10-07T11:23:56.665Z,25.73
2018-10-07T11:26:35.496Z,24.40
2018-10-07T11:29:13.736Z,28.57
2018-10-07T11:31:43.158Z,24.70
2018-10-07T11:34:25.472Z,26.77
2018-10-07T11:37:17.850Z,20.80
2018-10-07T11:40:27.696Z,21.07
2018-10-07T11:43:06.753Z,17.53
2018-10-07T11:45:39.264Z,18.30
2018-10-07T11:49:12.353Z,16.00
2018-10-07T11:51:54.097Z,23.40
2018-10-07T11:54:35.691Z,19.77
2018-10-07T11:57:03.700Z,18.53
2018-10-07T11:59:31.974Z,18.73
2018-10-07T12:01:59.919Z,20.03
2018-10-07T12:04:28.401Z,15.90
2018-10-07T12:06:56.174Z,16.80
2018-10-07T12:09:23.752Z,15.80
2018-10-07T12:11:51.828Z,14.50
2018-10-07T12:14:19.367Z,12.23
2018-10-07T12:16:46.964Z,13.40
2018-10-07T12:19:14.630Z,13.23
2018-10-07T12:21:42.551Z,10.70
2018-10-07T12:24:10.174Z,8.90
2018-10-07T12:26:38.331Z,9.57
2018-10-07T12:29:05.928Z,8.70
2018-10-07T12:31:33.589Z,8.93
2018-10-07T12:34:01.119Z,8.90
2018-10-07T12:36:28.843Z,9.90
2018-10-07T12:38:57.115Z,8.87
2018-10-07T12:41:24.713Z,9.93
2018-10-07T12:43:52.159Z,10.00
2018-10-07T12:46:19.877Z,7.87
2018-10-07T12:48:47.512Z,9.50
2018-10-07T12:51:15.162Z,8.67
2018-10-07T12:53:42.757Z,6.87
2018-10-07T12:56:10.442Z,10.93
2018-10-07T12:58:37.964Z,9.70
2018-10-07T13:01:06.484Z,8.87
2018-10-07T13:03:33.970Z,9.30
2018-10-07T13:06:01.601Z,7.03
2018-10-07T13:08:29.298Z,6.73
2018-10-07T13:10:57.516Z,6.40
2018-10-07T13:13:25.004Z,7.00
2018-10-07T13:15:53.555Z,7.63
2018-10-07T13:18:21.250Z,7.23
2018-10-07T13:20:48.791Z,7.80
2018-10-07T13:23:16.777Z,10.07
2018-10-07T13:25:44.288Z,8.30
2018-10-07T13:28:11.794Z,7.50
2018-10-07T13:30:39.375Z,7.43
2018-10-07T13:33:06.756Z,6.80
2018-10-07T13:35:34.256Z,13.70
2018-10-07T13:38:01.814Z,16.93
2018-10-07T13:40:29.300Z,7.50
2018-10-07T13:42:56.935Z,10.77
2018-10-07T13:45:24.457Z,4.87
2018-10-07T13:47:51.977Z,4.33
2018-10-07T13:50:19.587Z,7.27
2018-10-07T13:52:47.811Z,6.20
2018-10-07T13:55:15.930Z,4.43
2018-10-07T13:57:44.025Z,6.57
2018-10-07T14:00:11.544Z,5.93
2018-10-07T14:02:39.309Z,3.70
2018-10-07T14:05:07.187Z,5.03
2018-10-07T14:07:34.731Z,5.63
2018-10-07T14:10:02.328Z,5.07
2018-10-07T14:12:30.573Z,4.33
2018-10-07T14:14:58.042Z,5.23
2018-10-07T14:17:25.580Z,4.63
2018-10-07T14:19:53.204Z,5.87
2018-10-07T14:22:20.705Z,5.70
2018-10-07T14:24:48.381Z,6.80
2018-10-07T14:27:16.061Z,6.23
2018-10-07T14:29:43.758Z,8.10
2018-10-07T14:32:11.304Z,13.70
2018-10-07T14:34:38.940Z,11.13
2018-10-07T14:37:07.123Z,15.57
2018-10-07T14:39:34.640Z,11.10
2018-10-07T14:42:02.237Z,15.60
2018-10-07T14:44:30.058Z,11.90
2018-10-07T14:46:58.467Z,6.23
2018-10-07T14:49:26.997Z,7.83
2018-10-07T14:51:54.628Z,11.10
2018-10-07T14:57:20.474Z,10.70
2018-10-07T14:59:48.014Z,10.30
2018-10-07T15:02:15.674Z,5.87
2018-10-07T15:04:43.242Z,11.80
2018-10-07T15:07:11.760Z,7.57
2018-10-07T15:09:41.101Z,10.07
2018-10-07T15:12:08.685Z,11.60
2018-10-07T15:14:36.183Z,6.93
2018-10-07T15:17:04.028Z,9.93
2018-10-07T15:19:33.343Z,9.67
2018-10-07T15:22:01.864Z,7.97
2018-10-07T15:24:30.062Z,8.20
2018-10-07T15:26:57.761Z,9.50
2018-10-07T15:29:25.351Z,6.77
2018-10-07T15:31:53.508Z,5.93
2018-10-07T15:34:21.929Z,8.07
2018-10-07T15:36:50.093Z,6.37
2018-10-07T15:39:17.576Z,7.87
2018-10-07T15:41:46.107Z,7.93
2018-10-07T15:44:13.683Z,8.13
2018-10-07T15:46:41.313Z,8.97
2018-10-07T15:49:08.872Z,8.50
2018-10-07T15:51:36.473Z,6.73
2018-10-07T15:54:04.076Z,5.23
2018-10-07T15:56:31.644Z,5.13
2018-10-07T15:58:59.993Z,8.90
2018-10-07T16:01:28.177Z,6.10
2018-10-07T16:03:56.075Z,7.40
2018-10-07T16:06:23.919Z,10.13
2018-10-07T16:08:53.076Z,13.73
2018-10-07T16:11:20.590Z,5.60
2018-10-07T16:13:48.281Z,6.77
2018-10-07T16:16:17.420Z,4.50
2018-10-07T16:18:45.146Z,5.30
2018-10-07T16:21:14.095Z,3.97
2018-10-07T16:23:59.013Z,7.67
2018-10-07T16:26:27.463Z,7.87
2018-10-07T16:28:56.420Z,4.90
2018-10-07T16:31:25.089Z,12.63
2018-10-07T16:33:54.182Z,6.13
2018-10-07T16:36:23.528Z,11.40
2018-10-07T16:38:51.189Z,3.83
2018-10-07T16:41:18.760Z,10.43
2018-10-07T16:43:46.930Z,4.90
2018-10-07T16:46:14.641Z,4.87
2018-10-07T16:48:42.565Z,6.37
2018-10-07T16:51:11.032Z,5.50
2018-10-07T16:53:38.925Z,6.30
2018-10-07T16:56:06.902Z,7.97
2018-10-07T16:58:34.887Z,6.83
2018-10-07T17:01:02.753Z,5.77
2018-10-07T17:03:31.485Z,7.33
2018-10-07T17:05:59.148Z,12.20
2018-10-07T17:08:27.492Z,14.57
2018-10-07T17:10:57.436Z,6.43
2018-10-07T17:13:25.563Z,3.83
2018-10-07T17:15:53.748Z,3.80
2018-10-07T17:18:22.012Z,5.67
2018-10-07T17:20:49.720Z,4.10
2018-10-07T17:23:17.670Z,4.23
2018-10-07T17:25:45.316Z,3.77
2018-10-07T17:28:12.965Z,4.90
2018-10-07T17:30:41.649Z,4.17
2018-10-07T17:33:09.341Z,5.23
2018-10-07T17:35:38.245Z,3.80
2018-10-07T17:38:06.392Z,5.27
2018-10-07T17:40:34.086Z,4.13
2018-10-07T17:43:02.225Z,8.03
2018-10-07T17:45:30.123Z,6.13
2018-10-07T17:47:58.351Z,7.87
2018-10-07T17:50:27.436Z,3.63
2018-10-07T17:52:55.270Z,3.30
2018-10-07T17:55:22.939Z,3.40
2018-10-07T17:57:50.832Z,5.53
2018-10-07T18:00:19.073Z,3.50
2018-10-07T18:02:46.704Z,5.80
2018-10-07T18:05:14.212Z,4.30
2018-10-07T18:07:42.259Z,4.63
2018-10-07T18:10:09.872Z,3.03
2018-10-07T18:12:37.769Z,3.47
2018-10-07T18:15:05.641Z,3.17
2018-10-07T18:17:33.856Z,4.40
2018-10-07T18:20:02.823Z,2.70
2018-10-07T18:22:31.531Z,6.37
2018-10-07T18:24:59.106Z,2.20
2018-10-07T18:27:27.995Z,2.57
2018-10-07T18:29:55.687Z,3.57
2018-10-07T18:32:23.594Z,4.97
2018-10-07T18:34:52.122Z,7.17
2018-10-07T18:37:20.120Z,6.80
2018-10-07T18:39:48.485Z,5.73
2018-10-07T18:42:16.527Z,6.17
2018-10-07T18:44:44.262Z,3.23
2018-10-07T18:47:12.072Z,4.63
2018-10-07T18:49:40.318Z,3.13
2018-10-07T18:52:08.133Z,3.47
2018-10-07T18:54:35.797Z,2.43
2018-10-07T18:57:03.361Z,3.30
2018-10-07T18:59:30.984Z,3.67
2018-10-07T19:01:59.364Z,5.23
2018-10-07T19:04:27.567Z,7.63
2018-10-07T19:06:55.202Z,3.53
2018-10-07T19:09:22.940Z,5.30
2018-10-07T19:11:50.851Z,4.10
2018-10-07T19:14:19.488Z,2.90
2018-10-07T19:16:47.071Z,2.90
2018-10-07T19:19:15.512Z,6.07
2018-10-07T19:21:43.241Z,5.43
2018-10-07T19:24:11.134Z,8.77
2018-10-07T19:26:38.770Z,5.67
2018-10-07T19:29:06.767Z,3.57
2018-10-07T19:31:35.784Z,5.70
2018-10-07T19:34:03.530Z,4.97
2018-10-07T19:36:32.477Z,4.70
2018-10-07T19:39:00.255Z,4.33
2018-10-07T19:41:29.084Z,5.20
2018-10-07T19:43:57.894Z,7.10
2018-10-07T19:46:26.436Z,8.00
2018-10-07T19:48:54.129Z,5.60
2018-10-07T19:51:25.520Z,6.70
2018-10-07T19:53:53.821Z,6.70
2018-10-07T19:56:21.938Z,3.67
2018-10-07T19:58:49.789Z,6.03
2018-10-07T20:01:17.463Z,3.13
2018-10-07T20:03:45.407Z,5.83
2018-10-07T20:06:13.578Z,5.90
2018-10-07T20:08:41.784Z,6.23
2018-10-07T20:11:10.786Z,8.30
2018-10-07T20:13:39.582Z,3.67
2018-10-07T20:16:07.543Z,3.73
2018-10-07T20:18:38.425Z,5.00
2018-10-07T20:21:07.588Z,5.10
2018-10-07T20:23:36.650Z,2.57
2018-10-07T20:26:05.288Z,3.33
2018-10-07T20:28:34.151Z,7.63
2018-10-07T20:32:27.630Z,6.13
2018-10-07T20:34:56.040Z,4.00
2018-10-07T20:37:25.111Z,3.93
2018-10-07T20:39:52.849Z,3.63
2018-10-07T20:42:21.451Z,3.10
2018-10-07T20:44:49.471Z,5.03
2018-10-07T20:47:17.059Z,5.50
2018-10-07T20:49:44.923Z,4.30
2018-10-07T20:52:12.592Z,4.43
2018-10-07T20:54:40.274Z,3.60
2018-10-07T20:57:08.578Z,3.47
2018-10-07T21:00:40.522Z,3.90
2018-10-07T21:03:09.037Z,4.53
2018-10-07T21:05:36.849Z,4.80
2018-10-07T21:08:04.504Z,8.30
2018-10-07T21:10:32.183Z,10.27
2018-10-07T21:13:00.038Z,9.37
2018-10-07T21:15:29.245Z,7.90
2018-10-07T21:17:57.938Z,9.10
2018-10-07T21:20:25.460Z,7.60
2018-10-07T21:22:53.074Z,5.97
2018-10-07T21:25:20.640Z,3.57
2018-10-07T21:27:55.962Z,5.30
2018-10-07T21:30:27.172Z,5.43
2018-10-07T21:32:54.720Z,4.70
2018-10-07T21:35:22.142Z,7.90
2018-10-07T21:37:50.231Z,5.87
2018-10-07T21:40:18.431Z,8.80
2018-10-07T21:42:46.132Z,6.93
2018-10-07T21:45:16.072Z,6.17
2018-10-07T21:47:43.768Z,6.40
2018-10-07T21:50:11.300Z,4.30
2018-10-07T21:52:38.898Z,5.63
2018-10-07T21:55:09.398Z,6.60
2018-10-07T21:57:38.025Z,8.20
2018-10-07T22:00:07.100Z,11.80
2018-10-07T22:02:34.603Z,6.93
2018-10-07T22:05:02.588Z,15.00
2018-10-07T22:07:31.174Z,7.77
2018-10-07T22:09:58.878Z,6.67
2018-10-07T22:12:26.574Z,5.57
2018-10-07T22:14:54.295Z,8.07
2018-10-07T22:17:22.044Z,7.10
2018-10-07T22:19:49.683Z,7.27
2018-10-07T22:22:18.081Z,6.33
2018-10-07T22:24:47.914Z,15.00
2018-10-07T22:27:15.350Z,5.63
2018-10-07T22:29:42.932Z,5.40
2018-10-07T22:32:10.500Z,5.20
2018-10-07T22:34:38.039Z,10.20
2018-10-07T22:37:06.149Z,6.63
2018-10-07T22:39:33.930Z,7.03
2018-10-07T22:42:02.272Z,6.67
2018-10-07T22:44:29.807Z,5.90
2018-10-07T22:46:57.319Z,5.47
2018-10-07T22:49:24.949Z,6.40
2018-10-07T22:51:52.537Z,6.53
2018-10-07T22:54:20.779Z,6.40
2018-10-07T22:56:48.328Z,4.77
2018-10-07T22:59:16.610Z,6.20
2018-10-07T23:01:44.237Z,5.10
2018-10-07T23:04:12.420Z,6.03
2018-10-07T23:06:40.161Z,8.13
2018-10-07T23:09:09.619Z,4.73
2018-10-07T23:11:37.843Z,5.67
2018-10-07T23:14:05.597Z,6.63
2018-10-07T23:16:33.715Z,6.53
2018-10-07T23:19:01.271Z,6.90
2018-10-07T23:21:29.001Z,6.33
2018-10-07T23:23:56.667Z,5.03
2018-10-07T23:26:24.379Z,6.73
2018-10-07T23:28:52.154Z,11.40
2018-10-07T23:31:20.807Z,6.30
2018-10-07T23:33:48.219Z,6.33
2018-10-07T23:36:16.134Z,6.10
2018-10-07T23:38:43.977Z,6.50
2018-10-07T23:58:20.541Z,6.67
